sensor_id;sensor_type;location;lat;lon;timestamp;P1;durP1;ratioP1;P2;durP2;ratioP2
64903;SDS011;51401;48.882;12.598;2022-08-19T00:01:36;11.40;;;9.02;;
64903;SDS011;51401;48.882;12.598;2022-08-19T00:04:04;10.55;;;9.30;;
64903;SDS011;51401;48.882;12.598;2022-08-19T00:06:31;11.07;;;9.00;;
64903;SDS011;51401;48.882;12.598;2022-08-19T00:08:57;10.88;;;9.77;;
64903;SDS011;51401;48.882;12.598;2022-08-19T00:11:23;10.65;;;9.55;;
64903;SDS011;51401;48.882;12.598;2022-08-19T00:13:51;10.98;;;9.48;;
64903;SDS011;51401;48.882;12.598;2022-08-19T00:16:17;10.82;;;9.68;;
64903;SDS011;51401;48.882;12.598;2022-08-19T00:18:46;10.43;;;9.43;;
64903;SDS011;51401;48.882;12.598;2022-08-19T00:21:11;11.50;;;9.23;;
64903;SDS011;51401;48.882;12.598;2022-08-19T00:23:37;10.95;;;9.27;;
64903;SDS011;51401;48.882;12.598;2022-08-19T00:26:05;11.85;;;9.75;;
64903;SDS011;51401;48.882;12.598;2022-08-19T00:28:32;12.27;;;10.40;;
64903;SDS011;51401;48.882;12.598;2022-08-19T00:30:58;11.50;;;9.85;;
64903;SDS011;51401;48.882;12.598;2022-08-19T00:33:24;11.43;;;9.90;;
64903;SDS011;51401;48.882;12.598;2022-08-19T00:35:49;10.10;;;9.00;;
64903;SDS011;51401;48.882;12.598;2022-08-19T00:38:14;10.75;;;9.63;;
64903;SDS011;51401;48.882;12.598;2022-08-19T00:40:42;10.30;;;8.93;;
64903;SDS011;51401;48.882;12.598;2022-08-19T00:43:11;12.38;;;9.88;;
64903;SDS011;51401;48.882;12.598;2022-08-19T00:45:38;10.77;;;9.68;;
64903;SDS011;51401;48.882;12.598;2022-08-19T00:48:06;12.10;;;10.75;;
64903;SDS011;51401;48.882;12.598;2022-08-19T00:50:32;12.27;;;10.32;;
64903;SDS011;51401;48.882;12.598;2022-08-19T00:52:58;11.18;;;10.10;;
64903;SDS011;51401;48.882;12.598;2022-08-19T00:55:25;13.25;;;11.85;;
64903;SDS011;51401;48.882;12.598;2022-08-19T00:57:58;12.80;;;10.70;;
64903;SDS011;51401;48.882;12.598;2022-08-19T01:00:28;12.85;;;11.25;;
64903;SDS011;51401;48.882;12.598;2022-08-19T01:02:54;14.75;;;12.02;;
64903;SDS011;51401;48.882;12.598;2022-08-19T01:05:21;13.85;;;11.13;;
64903;SDS011;51401;48.882;12.598;2022-08-19T01:07:52;14.07;;;12.10;;
64903;SDS011;51401;48.882;12.598;2022-08-19T01:10:20;13.10;;;11.65;;
64903;SDS011;51401;48.882;12.598;2022-08-19T01:12:49;13.07;;;11.65;;
64903;SDS011;51401;48.882;12.598;2022-08-19T01:15:18;13.05;;;11.75;;
64903;SDS011;51401;48.882;12.598;2022-08-19T01:17:47;13.63;;;12.00;;
64903;SDS011;51401;48.882;12.598;2022-08-19T01:20:15;14.60;;;11.55;;
64903;SDS011;51401;48.882;12.598;2022-08-19T01:22:49;13.73;;;11.85;;
64903;SDS011;51401;48.882;12.598;2022-08-19T01:25:21;13.07;;;11.13;;
64903;SDS011;51401;48.882;12.598;2022-08-19T01:27:50;14.77;;;13.27;;
64903;SDS011;51401;48.882;12.598;2022-08-19T01:30:26;15.82;;;12.93;;
64903;SDS011;51401;48.882;12.598;2022-08-19T01:32:53;12.40;;;11.10;;
64903;SDS011;51401;48.882;12.598;2022-08-19T01:35:20;13.10;;;11.70;;
64903;SDS011;51401;48.882;12.598;2022-08-19T01:38:24;13.07;;;11.77;;
64903;SDS011;51401;48.882;12.598;2022-08-19T01:43:14;13.40;;;12.03;;
64903;SDS011;51401;48.882;12.598;2022-08-19T01:45:40;12.98;;;11.68;;
64903;SDS011;51401;48.882;12.598;2022-08-19T01:48:06;16.95;;;12.90;;
64903;SDS011;51401;48.882;12.598;2022-08-19T01:50:32;15.52;;;13.05;;
64903;SDS011;51401;48.882;12.598;2022-08-19T01:52:59;16.67;;;12.65;;
64903;SDS011;51401;48.882;12.598;2022-08-19T01:55:25;14.15;;;12.65;;
64903;SDS011;51401;48.882;12.598;2022-08-19T01:57:52;16.02;;;12.43;;
64903;SDS011;51401;48.882;12.598;2022-08-19T02:00:22;17.75;;;13.50;;
64903;SDS011;51401;48.882;12.598;2022-08-19T02:02:48;15.07;;;12.25;;
64903;SDS011;51401;48.882;12.598;2022-08-19T02:05:14;16.02;;;13.15;;
64903;SDS011;51401;48.882;12.598;2022-08-19T02:07:43;17.38;;;14.48;;
64903;SDS011;51401;48.882;12.598;2022-08-19T02:10:11;14.35;;;12.50;;
64903;SDS011;51401;48.882;12.598;2022-08-19T02:12:39;16.38;;;13.93;;
64903;SDS011;51401;48.882;12.598;2022-08-19T02:15:04;15.95;;;12.60;;
64903;SDS011;51401;48.882;12.598;2022-08-19T02:17:31;15.88;;;14.10;;
64903;SDS011;51401;48.882;12.598;2022-08-19T02:19:57;17.40;;;13.85;;
64903;SDS011;51401;48.882;12.598;2022-08-19T02:22:23;15.60;;;13.60;;
64903;SDS011;51401;48.882;12.598;2022-08-19T02:24:50;18.73;;;14.95;;
64903;SDS011;51401;48.882;12.598;2022-08-19T02:27:15;16.92;;;13.63;;
64903;SDS011;51401;48.882;12.598;2022-08-19T02:29:41;17.67;;;15.43;;
64903;SDS011;51401;48.882;12.598;2022-08-19T02:32:07;17.30;;;14.48;;
64903;SDS011;51401;48.882;12.598;2022-08-19T02:34:32;18.67;;;14.60;;
64903;SDS011;51401;48.882;12.598;2022-08-19T02:36:58;17.15;;;15.13;;
64903;SDS011;51401;48.882;12.598;2022-08-19T02:39:24;19.52;;;15.05;;
64903;SDS011;51401;48.882;12.598;2022-08-19T02:41:49;19.95;;;15.05;;
64903;SDS011;51401;48.882;12.598;2022-08-19T02:44:15;19.10;;;15.90;;
64903;SDS011;51401;48.882;12.598;2022-08-19T02:46:41;17.35;;;14.55;;
64903;SDS011;51401;48.882;12.598;2022-08-19T02:49:08;16.40;;;14.65;;
64903;SDS011;51401;48.882;12.598;2022-08-19T02:51:35;18.40;;;14.85;;
64903;SDS011;51401;48.882;12.598;2022-08-19T02:54:02;17.50;;;14.70;;
64903;SDS011;51401;48.882;12.598;2022-08-19T02:56:29;19.17;;;16.00;;
64903;SDS011;51401;48.882;12.598;2022-08-19T02:58:56;19.77;;;16.23;;
64903;SDS011;51401;48.882;12.598;2022-08-19T03:01:28;17.98;;;15.15;;
64903;SDS011;51401;48.882;12.598;2022-08-19T03:03:57;18.58;;;14.52;;
64903;SDS011;51401;48.882;12.598;2022-08-19T03:06:24;17.13;;;15.05;;
64903;SDS011;51401;48.882;12.598;2022-08-19T03:08:51;19.77;;;15.20;;
64903;SDS011;51401;48.882;12.598;2022-08-19T03:11:18;20.63;;;16.20;;
64903;SDS011;51401;48.882;12.598;2022-08-19T03:13:47;18.35;;;16.05;;
64903;SDS011;51401;48.882;12.598;2022-08-19T03:16:15;19.27;;;15.02;;
64903;SDS011;51401;48.882;12.598;2022-08-19T03:18:42;19.73;;;15.43;;
64903;SDS011;51401;48.882;12.598;2022-08-19T03:21:08;18.67;;;16.10;;
64903;SDS011;51401;48.882;12.598;2022-08-19T03:23:34;19.83;;;16.00;;
64903;SDS011;51401;48.882;12.598;2022-08-19T03:26:02;19.00;;;14.70;;
64903;SDS011;51401;48.882;12.598;2022-08-19T03:28:30;18.08;;;15.10;;
64903;SDS011;51401;48.882;12.598;2022-08-19T03:31:00;17.65;;;14.90;;
64903;SDS011;51401;48.882;12.598;2022-08-19T03:33:36;17.02;;;15.23;;
64903;SDS011;51401;48.882;12.598;2022-08-19T03:36:03;17.50;;;15.02;;
64903;SDS011;51401;48.882;12.598;2022-08-19T03:38:41;18.23;;;15.70;;
64903;SDS011;51401;48.882;12.598;2022-08-19T03:41:10;16.88;;;14.38;;
64903;SDS011;51401;48.882;12.598;2022-08-19T03:43:38;19.35;;;16.38;;
64903;SDS011;51401;48.882;12.598;2022-08-19T03:46:05;19.17;;;15.57;;
64903;SDS011;51401;48.882;12.598;2022-08-19T03:48:33;19.20;;;14.63;;
64903;SDS011;51401;48.882;12.598;2022-08-19T03:50:59;19.42;;;14.68;;
64903;SDS011;51401;48.882;12.598;2022-08-19T03:53:25;18.05;;;15.02;;
64903;SDS011;51401;48.882;12.598;2022-08-19T03:55:52;18.13;;;14.65;;
64903;SDS011;51401;48.882;12.598;2022-08-19T03:58:18;18.63;;;14.82;;
64903;SDS011;51401;48.882;12.598;2022-08-19T04:00:44;19.92;;;15.07;;
64903;SDS011;51401;48.882;12.598;2022-08-19T04:03:09;18.70;;;14.77;;
64903;SDS011;51401;48.882;12.598;2022-08-19T04:05:34;18.73;;;16.23;;
64903;SDS011;51401;48.882;12.598;2022-08-19T04:07:59;19.43;;;15.93;;
64903;SDS011;51401;48.882;12.598;2022-08-19T04:10:25;17.27;;;15.45;;
64903;SDS011;51401;48.882;12.598;2022-08-19T04:12:51;18.10;;;15.93;;
64903;SDS011;51401;48.882;12.598;2022-08-19T04:15:16;18.13;;;15.38;;
64903;SDS011;51401;48.882;12.598;2022-08-19T04:17:42;17.85;;;14.77;;
64903;SDS011;51401;48.882;12.598;2022-08-19T04:20:07;17.15;;;14.73;;
64903;SDS011;51401;48.882;12.598;2022-08-19T04:22:33;19.45;;;14.93;;
64903;SDS011;51401;48.882;12.598;2022-08-19T04:24:58;18.33;;;15.43;;
64903;SDS011;51401;48.882;12.598;2022-08-19T04:27:23;16.08;;;14.40;;
64903;SDS011;51401;48.882;12.598;2022-08-19T04:29:48;17.40;;;14.73;;
64903;SDS011;51401;48.882;12.598;2022-08-19T04:32:14;18.63;;;15.03;;
64903;SDS011;51401;48.882;12.598;2022-08-19T04:34:40;18.20;;;14.65;;
64903;SDS011;51401;48.882;12.598;2022-08-19T04:37:06;16.42;;;14.45;;
64903;SDS011;51401;48.882;12.598;2022-08-19T04:39:37;16.35;;;14.65;;
64903;SDS011;51401;48.882;12.598;2022-08-19T04:42:22;16.65;;;15.02;;
64903;SDS011;51401;48.882;12.598;2022-08-19T04:45:07;18.25;;;15.15;;
64903;SDS011;51401;48.882;12.598;2022-08-19T04:47:37;16.80;;;14.63;;
64903;SDS011;51401;48.882;12.598;2022-08-19T04:50:04;18.20;;;15.40;;
64903;SDS011;51401;48.882;12.598;2022-08-19T04:52:30;17.38;;;15.35;;
64903;SDS011;51401;48.882;12.598;2022-08-19T04:54:56;18.38;;;15.70;;
64903;SDS011;51401;48.882;12.598;2022-08-19T04:57:22;19.55;;;16.80;;
64903;SDS011;51401;48.882;12.598;2022-08-19T04:59:48;20.80;;;15.20;;
64903;SDS011;51401;48.882;12.598;2022-08-19T05:02:13;17.20;;;15.32;;
64903;SDS011;51401;48.882;12.598;2022-08-19T05:04:39;18.30;;;15.40;;
64903;SDS011;51401;48.882;12.598;2022-08-19T05:07:05;21.80;;;16.42;;
64903;SDS011;51401;48.882;12.598;2022-08-19T05:09:30;17.80;;;15.80;;
64903;SDS011;51401;48.882;12.598;2022-08-19T05:11:56;16.50;;;14.68;;
64903;SDS011;51401;48.882;12.598;2022-08-19T05:14:22;17.42;;;14.48;;
64903;SDS011;51401;48.882;12.598;2022-08-19T05:16:48;17.63;;;15.82;;
64903;SDS011;51401;48.882;12.598;2022-08-19T05:19:13;19.70;;;15.48;;
64903;SDS011;51401;48.882;12.598;2022-08-19T05:21:58;17.85;;;15.90;;
64903;SDS011;51401;48.882;12.598;2022-08-19T05:24:43;17.67;;;15.80;;
64903;SDS011;51401;48.882;12.598;2022-08-19T05:27:08;20.03;;;15.50;;
64903;SDS011;51401;48.882;12.598;2022-08-19T05:29:34;16.98;;;15.18;;
64903;SDS011;51401;48.882;12.598;2022-08-19T05:32:00;18.40;;;14.68;;
64903;SDS011;51401;48.882;12.598;2022-08-19T05:34:26;18.02;;;16.13;;
64903;SDS011;51401;48.882;12.598;2022-08-19T05:36:53;17.55;;;15.25;;
64903;SDS011;51401;48.882;12.598;2022-08-19T05:39:22;18.45;;;16.45;;
64903;SDS011;51401;48.882;12.598;2022-08-19T05:41:50;21.45;;;16.15;;
64903;SDS011;51401;48.882;12.598;2022-08-19T05:44:22;18.95;;;14.88;;
64903;SDS011;51401;48.882;12.598;2022-08-19T05:46:48;17.65;;;15.43;;
64903;SDS011;51401;48.882;12.598;2022-08-19T05:49:14;18.45;;;15.77;;
64903;SDS011;51401;48.882;12.598;2022-08-19T05:51:41;17.55;;;15.75;;
64903;SDS011;51401;48.882;12.598;2022-08-19T05:54:07;18.55;;;15.90;;
64903;SDS011;51401;48.882;12.598;2022-08-19T05:56:34;18.58;;;15.70;;
64903;SDS011;51401;48.882;12.598;2022-08-19T05:59:03;17.90;;;16.10;;
64903;SDS011;51401;48.882;12.598;2022-08-19T06:03:58;16.50;;;14.67;;
64903;SDS011;51401;48.882;12.598;2022-08-19T06:06:23;19.23;;;15.15;;
64903;SDS011;51401;48.882;12.598;2022-08-19T06:08:49;17.48;;;15.68;;
64903;SDS011;51401;48.882;12.598;2022-08-19T06:14:01;19.80;;;16.45;;
64903;SDS011;51401;48.882;12.598;2022-08-19T06:16:29;17.00;;;14.95;;
64903;SDS011;51401;48.882;12.598;2022-08-19T06:18:57;18.48;;;15.20;;
64903;SDS011;51401;48.882;12.598;2022-08-19T06:21:25;18.48;;;16.35;;
64903;SDS011;51401;48.882;12.598;2022-08-19T06:23:52;19.90;;;16.08;;
64903;SDS011;51401;48.882;12.598;2022-08-19T06:26:20;19.48;;;16.73;;
64903;SDS011;51401;48.882;12.598;2022-08-19T06:28:46;17.58;;;15.18;;
64903;SDS011;51401;48.882;12.598;2022-08-19T06:31:13;20.15;;;16.85;;
64903;SDS011;51401;48.882;12.598;2022-08-19T06:33:41;20.63;;;17.40;;
64903;SDS011;51401;48.882;12.598;2022-08-19T06:36:08;21.27;;;16.88;;
64903;SDS011;51401;48.882;12.598;2022-08-19T06:38:41;20.13;;;17.52;;
64903;SDS011;51401;48.882;12.598;2022-08-19T06:41:06;19.73;;;16.97;;
64903;SDS011;51401;48.882;12.598;2022-08-19T06:43:31;18.77;;;16.45;;
64903;SDS011;51401;48.882;12.598;2022-08-19T06:45:57;19.35;;;17.17;;
64903;SDS011;51401;48.882;12.598;2022-08-19T06:48:23;18.33;;;15.35;;
64903;SDS011;51401;48.882;12.598;2022-08-19T06:50:49;17.48;;;15.63;;
64903;SDS011;51401;48.882;12.598;2022-08-19T06:53:16;18.40;;;16.48;;
64903;SDS011;51401;48.882;12.598;2022-08-19T06:55:44;20.13;;;17.15;;
64903;SDS011;51401;48.882;12.598;2022-08-19T06:58:10;20.10;;;17.50;;
64903;SDS011;51401;48.882;12.598;2022-08-19T07:00:35;19.25;;;17.13;;
64903;SDS011;51401;48.882;12.598;2022-08-19T07:03:01;21.40;;;18.00;;
64903;SDS011;51401;48.882;12.598;2022-08-19T07:05:27;19.48;;;17.35;;
64903;SDS011;51401;48.882;12.598;2022-08-19T07:07:52;20.20;;;17.77;;
64903;SDS011;51401;48.882;12.598;2022-08-19T07:10:18;19.25;;;16.05;;
64903;SDS011;51401;48.882;12.598;2022-08-19T07:12:44;18.85;;;15.77;;
64903;SDS011;51401;48.882;12.598;2022-08-19T07:15:09;18.83;;;16.70;;
64903;SDS011;51401;48.882;12.598;2022-08-19T07:17:35;17.67;;;15.77;;
64903;SDS011;51401;48.882;12.598;2022-08-19T07:20:02;19.67;;;15.68;;
64903;SDS011;51401;48.882;12.598;2022-08-19T07:22:28;19.65;;;16.33;;
64903;SDS011;51401;48.882;12.598;2022-08-19T07:24:53;17.77;;;15.88;;
64903;SDS011;51401;48.882;12.598;2022-08-19T07:27:19;17.60;;;15.52;;
64903;SDS011;51401;48.882;12.598;2022-08-19T07:29:44;18.55;;;15.90;;
64903;SDS011;51401;48.882;12.598;2022-08-19T07:32:10;18.08;;;15.65;;
64903;SDS011;51401;48.882;12.598;2022-08-19T07:34:36;19.17;;;16.50;;
64903;SDS011;51401;48.882;12.598;2022-08-19T07:37:03;19.23;;;17.13;;
64903;SDS011;51401;48.882;12.598;2022-08-19T07:39:31;21.63;;;18.17;;
64903;SDS011;51401;48.882;12.598;2022-08-19T07:41:59;18.83;;;15.93;;
64903;SDS011;51401;48.882;12.598;2022-08-19T07:44:26;21.38;;;16.67;;
64903;SDS011;51401;48.882;12.598;2022-08-19T07:46:54;23.40;;;17.23;;
64903;SDS011;51401;48.882;12.598;2022-08-19T07:49:21;18.30;;;15.95;;
64903;SDS011;51401;48.882;12.598;2022-08-19T07:51:51;19.80;;;15.80;;
64903;SDS011;51401;48.882;12.598;2022-08-19T07:54:18;17.73;;;15.15;;
64903;SDS011;51401;48.882;12.598;2022-08-19T07:56:44;17.33;;;15.48;;
64903;SDS011;51401;48.882;12.598;2022-08-19T07:59:10;18.67;;;16.35;;
64903;SDS011;51401;48.882;12.598;2022-08-19T08:01:36;18.42;;;16.38;;
64903;SDS011;51401;48.882;12.598;2022-08-19T08:04:02;18.23;;;15.60;;
64903;SDS011;51401;48.882;12.598;2022-08-19T08:06:46;18.83;;;16.63;;
64903;SDS011;51401;48.882;12.598;2022-08-19T08:09:31;18.48;;;16.00;;
64903;SDS011;51401;48.882;12.598;2022-08-19T08:14:32;17.60;;;15.77;;
64903;SDS011;51401;48.882;12.598;2022-08-19T08:17:01;18.48;;;15.65;;
64903;SDS011;51401;48.882;12.598;2022-08-19T08:19:29;19.77;;;16.38;;
64903;SDS011;51401;48.882;12.598;2022-08-19T08:21:58;20.13;;;16.65;;
64903;SDS011;51401;48.882;12.598;2022-08-19T08:24:25;18.42;;;15.75;;
64903;SDS011;51401;48.882;12.598;2022-08-19T08:26:52;19.88;;;16.40;;
64903;SDS011;51401;48.882;12.598;2022-08-19T08:29:18;17.00;;;15.15;;
64903;SDS011;51401;48.882;12.598;2022-08-19T08:31:45;18.30;;;15.52;;
64903;SDS011;51401;48.882;12.598;2022-08-19T08:34:12;17.13;;;14.90;;
64903;SDS011;51401;48.882;12.598;2022-08-19T08:36:42;19.88;;;15.50;;
64903;SDS011;51401;48.882;12.598;2022-08-19T08:39:14;17.95;;;15.48;;
64903;SDS011;51401;48.882;12.598;2022-08-19T08:41:46;17.50;;;15.50;;
64903;SDS011;51401;48.882;12.598;2022-08-19T08:44:20;18.73;;;15.15;;
64903;SDS011;51401;48.882;12.598;2022-08-19T08:46:49;15.93;;;14.02;;
64903;SDS011;51401;48.882;12.598;2022-08-19T08:52:11;16.53;;;14.37;;
64903;SDS011;51401;48.882;12.598;2022-08-19T08:54:44;15.75;;;13.77;;
64903;SDS011;51401;48.882;12.598;2022-08-19T08:57:14;16.02;;;14.30;;
64903;SDS011;51401;48.882;12.598;2022-08-19T08:59:45;18.60;;;15.73;;
64903;SDS011;51401;48.882;12.598;2022-08-19T09:02:15;17.02;;;15.18;;
64903;SDS011;51401;48.882;12.598;2022-08-19T09:04:41;20.83;;;16.58;;
64903;SDS011;51401;48.882;12.598;2022-08-19T09:10:46;18.15;;;15.85;;
64903;SDS011;51401;48.882;12.598;2022-08-19T09:12:57;18.55;;;15.63;;
64903;SDS011;51401;48.882;12.598;2022-08-19T09:15:46;17.58;;;14.43;;
64903;SDS011;51401;48.882;12.598;2022-08-19T09:18:17;17.70;;;14.93;;
64903;SDS011;51401;48.882;12.598;2022-08-19T09:20:43;15.63;;;12.90;;
64903;SDS011;51401;48.882;12.598;2022-08-19T09:23:08;15.85;;;13.93;;
64903;SDS011;51401;48.882;12.598;2022-08-19T09:25:35;15.80;;;14.10;;
64903;SDS011;51401;48.882;12.598;2022-08-19T09:28:01;19.30;;;15.55;;
64903;SDS011;51401;48.882;12.598;2022-08-19T09:30:29;17.35;;;14.18;;
64903;SDS011;51401;48.882;12.598;2022-08-19T09:32:56;17.55;;;14.52;;
64903;SDS011;51401;48.882;12.598;2022-08-19T09:35:22;16.33;;;14.60;;
64903;SDS011;51401;48.882;12.598;2022-08-19T09:37:48;17.25;;;14.93;;
64903;SDS011;51401;48.882;12.598;2022-08-19T09:40:14;17.40;;;14.10;;
64903;SDS011;51401;48.882;12.598;2022-08-19T09:42:40;17.33;;;15.32;;
64903;SDS011;51401;48.882;12.598;2022-08-19T09:45:08;15.82;;;14.10;;
64903;SDS011;51401;48.882;12.598;2022-08-19T09:47:34;18.40;;;15.00;;
64903;SDS011;51401;48.882;12.598;2022-08-19T09:50:03;17.48;;;14.57;;
64903;SDS011;51401;48.882;12.598;2022-08-19T09:52:33;15.73;;;13.77;;
64903;SDS011;51401;48.882;12.598;2022-08-19T09:55:02;14.73;;;12.02;;
64903;SDS011;51401;48.882;12.598;2022-08-19T09:57:29;14.75;;;12.85;;
64903;SDS011;51401;48.882;12.598;2022-08-19T09:59:54;14.60;;;13.07;;
64903;SDS011;51401;48.882;12.598;2022-08-19T10:02:19;14.82;;;12.82;;
64903;SDS011;51401;48.882;12.598;2022-08-19T10:04:44;15.40;;;12.88;;
64903;SDS011;51401;48.882;12.598;2022-08-19T10:07:29;17.17;;;14.68;;
64903;SDS011;51401;48.882;12.598;2022-08-19T10:09:54;15.65;;;13.95;;
64903;SDS011;51401;48.882;12.598;2022-08-19T10:12:20;14.95;;;13.35;;
64903;SDS011;51401;48.882;12.598;2022-08-19T10:14:45;15.93;;;13.10;;
64903;SDS011;51401;48.882;12.598;2022-08-19T10:17:11;14.45;;;12.95;;
64903;SDS011;51401;48.882;12.598;2022-08-19T10:19:36;15.45;;;13.20;;
64903;SDS011;51401;48.882;12.598;2022-08-19T10:22:03;15.45;;;13.60;;
64903;SDS011;51401;48.882;12.598;2022-08-19T10:24:32;15.93;;;12.93;;
64903;SDS011;51401;48.882;12.598;2022-08-19T10:26:58;15.13;;;12.55;;
64903;SDS011;51401;48.882;12.598;2022-08-19T10:29:24;14.60;;;12.93;;
64903;SDS011;51401;48.882;12.598;2022-08-19T10:31:52;16.05;;;13.85;;
64903;SDS011;51401;48.882;12.598;2022-08-19T10:34:19;14.88;;;13.38;;
64903;SDS011;51401;48.882;12.598;2022-08-19T10:36:44;15.13;;;13.52;;
64903;SDS011;51401;48.882;12.598;2022-08-19T10:39:10;15.40;;;12.30;;
64903;SDS011;51401;48.882;12.598;2022-08-19T10:41:38;14.02;;;12.25;;
64903;SDS011;51401;48.882;12.598;2022-08-19T10:44:05;15.18;;;13.07;;
64903;SDS011;51401;48.882;12.598;2022-08-19T10:46:34;14.45;;;12.80;;
64903;SDS011;51401;48.882;12.598;2022-08-19T10:49:02;14.82;;;13.23;;
64903;SDS011;51401;48.882;12.598;2022-08-19T10:51:29;14.32;;;12.27;;
64903;SDS011;51401;48.882;12.598;2022-08-19T10:54:14;14.65;;;13.15;;
64903;SDS011;51401;48.882;12.598;2022-08-19T10:56:39;14.15;;;12.68;;
64903;SDS011;51401;48.882;12.598;2022-08-19T10:59:21;13.40;;;12.02;;
64903;SDS011;51401;48.882;12.598;2022-08-19T11:01:52;14.27;;;12.68;;
64903;SDS011;51401;48.882;12.598;2022-08-19T11:04:19;13.02;;;11.65;;
64903;SDS011;51401;48.882;12.598;2022-08-19T11:06:45;12.50;;;11.20;;
64903;SDS011;51401;48.882;12.598;2022-08-19T11:09:13;12.93;;;11.63;;
64903;SDS011;51401;48.882;12.598;2022-08-19T11:11:40;13.32;;;11.93;;
64903;SDS011;51401;48.882;12.598;2022-08-19T11:14:09;13.75;;;12.00;;
64903;SDS011;51401;48.882;12.598;2022-08-19T11:16:37;14.20;;;12.80;;
64903;SDS011;51401;48.882;12.598;2022-08-19T11:19:04;13.93;;;12.23;;
64903;SDS011;51401;48.882;12.598;2022-08-19T11:21:31;14.25;;;12.45;;
64903;SDS011;51401;48.882;12.598;2022-08-19T11:24:00;14.52;;;13.02;;
64903;SDS011;51401;48.882;12.598;2022-08-19T11:26:29;13.77;;;12.38;;
64903;SDS011;51401;48.882;12.598;2022-08-19T11:28:56;13.02;;;11.73;;
64903;SDS011;51401;48.882;12.598;2022-08-19T11:31:23;12.85;;;11.55;;
64903;SDS011;51401;48.882;12.598;2022-08-19T11:33:51;13.63;;;12.23;;
64903;SDS011;51401;48.882;12.598;2022-08-19T11:36:20;13.32;;;11.93;;
64903;SDS011;51401;48.882;12.598;2022-08-19T11:38:47;12.55;;;11.35;;
64903;SDS011;51401;48.882;12.598;2022-08-19T11:41:13;15.43;;;11.48;;
64903;SDS011;51401;48.882;12.598;2022-08-19T11:43:40;13.07;;;11.73;;
64903;SDS011;51401;48.882;12.598;2022-08-19T11:46:07;11.93;;;10.73;;
64903;SDS011;51401;48.882;12.598;2022-08-19T11:48:34;10.95;;;9.80;;
64903;SDS011;51401;48.882;12.598;2022-08-19T11:51:03;11.18;;;9.98;;
64903;SDS011;51401;48.882;12.598;2022-08-19T11:53:31;11.75;;;10.65;;
64903;SDS011;51401;48.882;12.598;2022-08-19T11:55:56;12.63;;;11.32;;
64903;SDS011;51401;48.882;12.598;2022-08-19T11:58:22;12.68;;;11.48;;
64903;SDS011;51401;48.882;12.598;2022-08-19T12:00:47;12.75;;;11.45;;
64903;SDS011;51401;48.882;12.598;2022-08-19T12:03:13;12.45;;;11.30;;
64903;SDS011;51401;48.882;12.598;2022-08-19T12:05:39;12.57;;;11.27;;
64903;SDS011;51401;48.882;12.598;2022-08-19T12:08:05;12.98;;;11.68;;
64903;SDS011;51401;48.882;12.598;2022-08-19T12:10:31;12.57;;;11.27;;
64903;SDS011;51401;48.882;12.598;2022-08-19T12:12:57;11.70;;;10.48;;
64903;SDS011;51401;48.882;12.598;2022-08-19T12:15:22;12.68;;;11.48;;
64903;SDS011;51401;48.882;12.598;2022-08-19T12:17:48;13.25;;;11.85;;
64903;SDS011;51401;48.882;12.598;2022-08-19T12:20:13;12.05;;;10.82;;
64903;SDS011;51401;48.882;12.598;2022-08-19T12:22:41;11.13;;;10.07;;
64903;SDS011;51401;48.882;12.598;2022-08-19T12:25:07;12.50;;;11.30;;
64903;SDS011;51401;48.882;12.598;2022-08-19T12:27:33;12.05;;;10.85;;
64903;SDS011;51401;48.882;12.598;2022-08-19T12:30:00;11.52;;;10.40;;
64903;SDS011;51401;48.882;12.598;2022-08-19T12:32:27;12.38;;;11.07;;
64903;SDS011;51401;48.882;12.598;2022-08-19T12:34:52;12.18;;;11.07;;
64903;SDS011;51401;48.882;12.598;2022-08-19T12:37:17;12.17;;;11.00;;
64903;SDS011;51401;48.882;12.598;2022-08-19T12:39:43;11.37;;;10.37;;
64903;SDS011;51401;48.882;12.598;2022-08-19T12:42:09;12.02;;;10.77;;
64903;SDS011;51401;48.882;12.598;2022-08-19T12:44:38;12.43;;;11.20;;
64903;SDS011;51401;48.882;12.598;2022-08-19T12:47:04;11.80;;;10.73;;
64903;SDS011;51401;48.882;12.598;2022-08-19T12:49:30;12.02;;;10.93;;
64903;SDS011;51401;48.882;12.598;2022-08-19T12:51:58;12.57;;;11.32;;
64903;SDS011;51401;48.882;12.598;2022-08-19T12:54:25;11.52;;;10.50;;
64903;SDS011;51401;48.882;12.598;2022-08-19T12:56:51;11.00;;;9.90;;
64903;SDS011;51401;48.882;12.598;2022-08-19T12:59:16;12.18;;;11.00;;
64903;SDS011;51401;48.882;12.598;2022-08-19T13:01:44;12.68;;;11.48;;
64903;SDS011;51401;48.882;12.598;2022-08-19T13:04:09;12.60;;;11.32;;
64903;SDS011;51401;48.882;12.598;2022-08-19T13:06:35;11.88;;;10.68;;
64903;SDS011;51401;48.882;12.598;2022-08-19T13:09:02;12.07;;;10.80;;
64903;SDS011;51401;48.882;12.598;2022-08-19T13:11:28;12.68;;;11.48;;
64903;SDS011;51401;48.882;12.598;2022-08-19T13:13:57;12.90;;;11.20;;
64903;SDS011;51401;48.882;12.598;2022-08-19T13:16:23;12.30;;;11.02;;
64903;SDS011;51401;48.882;12.598;2022-08-19T13:18:49;11.80;;;10.60;;
64903;SDS011;51401;48.882;12.598;2022-08-19T13:21:17;11.98;;;10.75;;
64903;SDS011;51401;48.882;12.598;2022-08-19T13:23:45;12.38;;;11.02;;
64903;SDS011;51401;48.882;12.598;2022-08-19T13:26:12;10.80;;;9.75;;
64903;SDS011;51401;48.882;12.598;2022-08-19T13:28:39;11.20;;;9.88;;
64903;SDS011;51401;48.882;12.598;2022-08-19T13:31:24;10.73;;;9.63;;
64903;SDS011;51401;48.882;12.598;2022-08-19T13:34:09;12.20;;;10.40;;
64903;SDS011;51401;48.882;12.598;2022-08-19T13:36:35;12.20;;;10.68;;
64903;SDS011;51401;48.882;12.598;2022-08-19T13:39:01;9.95;;;9.05;;
64903;SDS011;51401;48.882;12.598;2022-08-19T13:41:27;10.80;;;9.80;;
64903;SDS011;51401;48.882;12.598;2022-08-19T13:43:53;10.77;;;9.68;;
64903;SDS011;51401;48.882;12.598;2022-08-19T13:46:19;11.43;;;10.32;;
64903;SDS011;51401;48.882;12.598;2022-08-19T13:48:44;10.60;;;9.55;;
64903;SDS011;51401;48.882;12.598;2022-08-19T13:51:10;9.60;;;8.65;;
64903;SDS011;51401;48.882;12.598;2022-08-19T13:53:36;10.52;;;9.05;;
64903;SDS011;51401;48.882;12.598;2022-08-19T13:56:06;9.45;;;8.55;;
64903;SDS011;51401;48.882;12.598;2022-08-19T13:58:32;11.93;;;9.55;;
64903;SDS011;51401;48.882;12.598;2022-08-19T14:00:58;9.23;;;8.32;;
64903;SDS011;51401;48.882;12.598;2022-08-19T14:03:24;9.25;;;8.35;;
64903;SDS011;51401;48.882;12.598;2022-08-19T14:05:50;8.88;;;8.00;;
64903;SDS011;51401;48.882;12.598;2022-08-19T14:08:16;7.82;;;7.13;;
64903;SDS011;51401;48.882;12.598;2022-08-19T14:10:42;8.10;;;7.30;;
64903;SDS011;51401;48.882;12.598;2022-08-19T14:13:09;8.23;;;7.43;;
64903;SDS011;51401;48.882;12.598;2022-08-19T14:15:35;8.13;;;7.32;;
64903;SDS011;51401;48.882;12.598;2022-08-19T14:18:02;8.38;;;7.63;;
64903;SDS011;51401;48.882;12.598;2022-08-19T14:20:27;8.38;;;7.60;;
64903;SDS011;51401;48.882;12.598;2022-08-19T14:22:53;8.83;;;8.03;;
64903;SDS011;51401;48.882;12.598;2022-08-19T14:25:21;8.65;;;7.85;;
64903;SDS011;51401;48.882;12.598;2022-08-19T14:27:48;9.10;;;8.20;;
64903;SDS011;51401;48.882;12.598;2022-08-19T14:30:14;8.35;;;7.65;;